No particular awareness of the weather is required.    There are no Weather-warnings


Meteo18 Weather Cam more information Meteo18 Weather Cam


Thunder radar more information blitzortung!


Rain radar more information rain snow radar


Visit our other weather sites:

Template documentation
and downloads

And another site



Weather Underground History page Text

Daily Summary for December 4, 2017 Units:  English    Metric   Both
« Previous Day
Next Day »
Daily Weekly Monthly Yearly Custom
  High: Low: Average:
Temperature: 42.3 °F 34.3 °F 38.7 °F
Dew Point: 41.7 °F 33.6 °F 38.1 °F
Humidity: 98 % 97 % 98 %
Wind Speed: 5 mph 0 mph 0.8 mph
Wind Gust: 8 mph - -
Wind:- - SW
Pressure: 30.7 in 30.5 in -
Precipitation: 0.02 in    
Historical Graphs
 
 
Tabular Data for December 4, 2017
Time Temperature Dew Point Pressure Wind Wind Speed Wind Gust Humidity Rainfall Rate (Hourly)
00:02 34.3 °F 33.6 °F 30.5 in West 1 mph 2 mph 97 % 0 in
00:12 34.3 °F 33.6 °F 30.5 in Calm   3 mph 97 % 0 in
00:17 34.3 °F 33.6 °F 30.5 in Calm   3 mph 97 % 0 in
00:22 34.5 °F 33.8 °F 30.5 in Calm   2 mph 97 % 0 in
00:32 34.5 °F 33.8 °F 30.5 in Calm   2 mph 97 % 0 in
00:42 34.5 °F 33.8 °F 30.5 in Calm   2 mph 97 % 0 in
00:47 34.5 °F 33.8 °F 30.5 in Calm   2 mph 97 % 0 in
00:52 34.7 °F 34 °F 30.5 in Calm   2 mph 97 % 0 in
00:57 34.7 °F 34 °F 30.5 in WSW 1 mph 2 mph 97 % 0 in
01:02 34.9 °F 34.2 °F 30.5 in Calm   2 mph 97 % 0 in
01:07 34.9 °F 34.2 °F 30.5 in Calm   2 mph 97 % 0 in
01:12 34.9 °F 34.2 °F 30.5 in Calm   1 mph 97 % 0 in
01:17 34.9 °F 34.2 °F 30.5 in Calm     97 % 0 in
01:22 34.9 °F 34.2 °F 30.5 in Calm   1 mph 97 % 0.01 in
01:27 34.9 °F 34.2 °F 30.5 in Calm   1 mph 97 % 0.01 in
01:32 35.1 °F 34.3 °F 30.5 in Calm   1 mph 97 % 0.01 in
01:37 35.1 °F 34.3 °F 30.5 in Calm   1 mph 97 % 0.01 in
01:42 35.1 °F 34.3 °F 30.5 in SW 1 mph 1 mph 97 % 0.01 in
01:47 35.2 °F 34.5 °F 30.5 in Calm   1 mph 97 % 0.01 in
01:52 35.2 °F 34.5 °F 30.5 in Calm   1 mph 97 % 0.01 in
01:57 35.2 °F 34.5 °F 30.5 in Calm   1 mph 97 % 0.01 in
02:02 35.2 °F 34.5 °F 30.5 in Calm     97 % 0.01 in
02:07 35.2 °F 34.5 °F 30.5 in Calm     97 % 0.01 in
02:12 35.2 °F 34.5 °F 30.5 in Calm     97 % 0.01 in
02:17 35.2 °F 34.5 °F 30.5 in Calm     97 % 0.01 in
02:22 35.2 °F 34.5 °F 30.5 in Calm     97 % 0 in
02:27 35.2 °F 34.5 °F 30.5 in Calm     97 % 0 in
02:32 35.2 °F 34.5 °F 30.5 in Calm     97 % 0 in
02:37 35.2 °F 34.5 °F 30.5 in Calm     97 % 0 in
02:42 35.4 °F 34.7 °F 30.5 in Calm     97 % 0 in
02:47 35.4 °F 34.7 °F 30.5 in Calm     97 % 0 in
02:52 35.4 °F 34.7 °F 30.5 in Calm     97 % 0 in
02:57 35.4 °F 34.7 °F 30.5 in Calm     97 % 0 in
03:02 35.4 °F 34.7 °F 30.5 in Calm     97 % 0 in
03:12 35.6 °F 34.9 °F 30.5 in Calm     97 % 0 in
03:17 35.8 °F 35.1 °F 30.5 in Calm     97 % 0 in
03:22 35.8 °F 35.1 °F 30.5 in Calm     97 % 0 in
03:27 35.8 °F 35.1 °F 30.5 in Calm     97 % 0 in
03:32 35.8 °F 35.1 °F 30.5 in Calm     97 % 0 in
03:37 36 °F 35.2 °F 30.5 in SSW 1 mph   97 % 0 in
03:42 36.1 °F 35.4 °F 30.5 in WSW 1 mph 1 mph 97 % 0 in
03:52 36.3 °F 35.6 °F 30.5 in Calm   2 mph 97 % 0 in
03:57 36.3 °F 35.6 °F 30.5 in WSW 1 mph 2 mph 97 % 0.01 in
04:02 36.3 °F 35.6 °F 30.5 in SW 1 mph 2 mph 97 % 0.01 in
04:07 36.3 °F 35.6 °F 30.5 in WSW 2 mph 2 mph 97 % 0.01 in
04:22 36.3 °F 35.6 °F 30.5 in West 1 mph 4 mph 97 % 0.01 in
04:27 36.5 °F 35.8 °F 30.5 in Calm   3 mph 97 % 0.01 in
04:32 36.3 °F 35.6 °F 30.5 in SW 1 mph 2 mph 97 % 0.01 in
04:37 36.3 °F 35.6 °F 30.5 in Calm   1 mph 97 % 0.01 in
04:42 36.3 °F 35.6 °F 30.5 in SSW 1 mph 1 mph 97 % 0.01 in
04:47 36.3 °F 35.6 °F 30.5 in Calm   1 mph 97 % 0.01 in
04:52 36.3 °F 35.6 °F 30.5 in Calm   1 mph 97 % 0.01 in
04:57 36.3 °F 35.6 °F 30.5 in Calm   1 mph 97 % 0 in
05:02 36.3 °F 35.6 °F 30.5 in Calm   1 mph 97 % 0 in
05:07 36.3 °F 35.6 °F 30.5 in Calm   1 mph 97 % 0 in
05:12 36.5 °F 35.8 °F 30.5 in Calm   1 mph 97 % 0 in
05:17 36.5 °F 35.8 °F 30.5 in Calm   1 mph 97 % 0 in
05:22 36.3 °F 35.6 °F 30.5 in SSW 2 mph 2 mph 97 % 0 in
05:32 36.5 °F 35.8 °F 30.5 in SSW 1 mph 2 mph 97 % 0 in
05:42 36.7 °F 36 °F 30.5 in Calm   2 mph 97 % 0.01 in
05:47 36.7 °F 36 °F 30.5 in SE 1 mph 1 mph 97 % 0.01 in
05:52 36.7 °F 36 °F 30.5 in Calm   1 mph 97 % 0.01 in
05:57 36.7 °F 36 °F 30.5 in Calm   1 mph 97 % 0.01 in
06:02 36.7 °F 36 °F 30.5 in Calm   1 mph 97 % 0.01 in
06:12 36.7 °F 36 °F 30.5 in Calm   1 mph 97 % 0.01 in
06:17 36.7 °F 36 °F 30.5 in Calm   1 mph 97 % 0.01 in
06:22 36.7 °F 36 °F 30.5 in SW 1 mph 1 mph 97 % 0.01 in
06:27 36.7 °F 36 °F 30.5 in SW 1 mph 2 mph 97 % 0.01 in
06:32 36.7 °F 36 °F 30.5 in Calm   2 mph 97 % 0.01 in
06:37 36.7 °F 36 °F 30.5 in SW 1 mph 2 mph 97 % 0.01 in
06:42 36.9 °F 36.1 °F 30.5 in WSW 1 mph 2 mph 97 % 0 in
06:47 36.9 °F 36.1 °F 30.5 in Calm   2 mph 97 % 0 in
06:52 36.9 °F 36.1 °F 30.5 in Calm   2 mph 97 % 0 in
06:57 36.9 °F 36.1 °F 30.5 in Calm   2 mph 97 % 0 in
07:02 36.9 °F 36.1 °F 30.5 in Calm   1 mph 97 % 0 in
07:07 36.9 °F 36.1 °F 30.5 in Calm   1 mph 97 % 0 in
07:12 36.9 °F 36.1 °F 30.5 in Calm   1 mph 97 % 0 in
07:22 36.9 °F 36.1 °F 30.5 in SW 1 mph 2 mph 97 % 0 in
07:27 36.9 °F 36.1 °F 30.5 in SSW 1 mph 4 mph 97 % 0 in
07:32 36.9 °F 36.1 °F 30.5 in SW 3 mph 4 mph 97 % 0 in
07:37 36.9 °F 36.1 °F 30.5 in WSW 2 mph 4 mph 97 % 0 in
07:42 37 °F 36.3 °F 30.5 in SW 2 mph 4 mph 97 % 0 in
07:47 37 °F 36.3 °F 30.5 in SW 2 mph 4 mph 97 % 0 in
07:52 37 °F 36.3 °F 30.5 in SW 2 mph 3 mph 97 % 0 in
07:57 37 °F 36.3 °F 30.5 in West 1 mph 4 mph 97 % 0 in
08:02 37 °F 36.3 °F 30.5 in West 2 mph 4 mph 97 % 0 in
08:07 37 °F 36.3 °F 30.5 in WNW 1 mph 4 mph 97 % 0 in
08:12 37 °F 36.5 °F 30.5 in Calm   4 mph 98 % 0 in
08:17 37.2 °F 36.7 °F 30.5 in WSW 2 mph 4 mph 98 % 0 in
08:22 37.2 °F 36.7 °F 30.5 in WSW 1 mph 3 mph 98 % 0 in
08:27 37.2 °F 36.7 °F 30.5 in SW 1 mph 3 mph 98 % 0 in
08:32 37.2 °F 36.7 °F 30.5 in SSW 1 mph 2 mph 98 % 0 in
08:42 37.2 °F 36.7 °F 30.5 in SW 2 mph 5 mph 98 % 0 in
08:47 37.2 °F 36.7 °F 30.5 in SSW 2 mph 5 mph 98 % 0 in
08:52 37.4 °F 36.9 °F 30.5 in SW 3 mph 5 mph 98 % 0 in
08:57 37.4 °F 36.9 °F 30.5 in SW 2 mph 5 mph 98 % 0 in
09:02 37.6 °F 37 °F 30.5 in SW 5 mph 5 mph 98 % 0 in
09:07 37.6 °F 37 °F 30.5 in WSW 3 mph 6 mph 98 % 0 in
09:12 37.6 °F 37 °F 30.5 in WSW 1 mph 6 mph 98 % 0 in
09:22 37.8 °F 37.2 °F 30.5 in WSW 1 mph 4 mph 98 % 0 in
09:27 37.8 °F 37.2 °F 30.5 in Calm   4 mph 98 % 0 in
09:32 37.9 °F 37.4 °F 30.5 in Calm   4 mph 98 % 0 in
09:42 37.9 °F 37.4 °F 30.6 in SSW 1 mph 1 mph 98 % 0 in
09:47 37.9 °F 37.4 °F 30.6 in Calm   1 mph 98 % 0 in
09:57 38.1 °F 37.6 °F 30.6 in SW 2 mph 5 mph 98 % 0 in
10:02 38.1 °F 37.6 °F 30.6 in SW 4 mph 5 mph 98 % 0 in
10:07 38.1 °F 37.6 °F 30.6 in SW 1 mph 5 mph 98 % 0 in
10:12 38.1 °F 37.6 °F 30.6 in SW 2 mph 5 mph 98 % 0 in
10:17 38.1 °F 37.6 °F 30.6 in Calm   5 mph 98 % 0 in
10:22 38.3 °F 37.8 °F 30.6 in SW 1 mph 5 mph 98 % 0 in
10:27 38.3 °F 37.8 °F 30.6 in WSW 1 mph 5 mph 98 % 0 in
10:32 38.5 °F 37.9 °F 30.6 in SW 1 mph 4 mph 98 % 0 in
10:37 38.5 °F 37.9 °F 30.6 in SW 1 mph 4 mph 98 % 0 in
10:42 38.5 °F 37.9 °F 30.6 in SSW 3 mph 4 mph 98 % 0 in
10:52 38.7 °F 38.1 °F 30.6 in SW 1 mph 5 mph 98 % 0 in
10:57 38.7 °F 38.1 °F 30.6 in SW 2 mph 5 mph 98 % 0 in
11:02 38.7 °F 38.1 °F 30.6 in SW 1 mph 5 mph 98 % 0 in
11:07 38.8 °F 38.3 °F 30.6 in SW 2 mph 4 mph 98 % 0 in
11:12 38.8 °F 38.3 °F 30.6 in SW 1 mph 4 mph 98 % 0 in
11:17 38.8 °F 38.3 °F 30.6 in SSW 1 mph 4 mph 98 % 0 in
11:22 38.8 °F 38.3 °F 30.6 in South 1 mph 4 mph 98 % 0 in
11:27 39 °F 38.5 °F 30.6 in SW 3 mph 3 mph 98 % 0 in
11:32 39 °F 38.5 °F 30.6 in SSW 3 mph 4 mph 98 % 0 in
11:37 39 °F 38.5 °F 30.6 in SW 3 mph 4 mph 98 % 0 in
11:42 39.2 °F 38.7 °F 30.6 in SW 3 mph 4 mph 98 % 0 in
11:47 39.2 °F 38.7 °F 30.6 in SSW 2 mph 7 mph 98 % 0 in
11:52 39.2 °F 38.7 °F 30.6 in SSW 4 mph 7 mph 98 % 0 in
11:57 39.4 °F 38.8 °F 30.6 in SW 2 mph 7 mph 98 % 0 in
12:02 39.4 °F 38.8 °F 30.6 in SSW 2 mph 5 mph 98 % 0 in
12:12 39.7 °F 39.2 °F 30.6 in SW 1 mph 7 mph 98 % 0 in
12:17 39.7 °F 39.2 °F 30.6 in WSW 3 mph 6 mph 98 % 0 in
12:22 39.7 °F 39.2 °F 30.6 in Calm   6 mph 98 % 0 in
12:27 39.9 °F 39.4 °F 30.6 in SW 3 mph 6 mph 98 % 0 in
12:32 39.9 °F 39.4 °F 30.6 in SSW 5 mph 6 mph 98 % 0 in
12:37 39.9 °F 39.4 °F 30.6 in SSW 4 mph 6 mph 98 % 0 in
12:47 39.9 °F 39.4 °F 30.6 in SW 3 mph 8 mph 98 % 0 in
12:52 39.9 °F 39.4 °F 30.6 in SW 2 mph 8 mph 98 % 0 in
12:57 39.9 °F 39.4 °F 30.6 in SW 3 mph 6 mph 98 % 0 in
13:02 40.1 °F 39.6 °F 30.6 in SW 3 mph 6 mph 98 % 0 in
13:07 40.1 °F 39.6 °F 30.6 in Calm   6 mph 98 % 0 in
13:12 40.3 °F 39.7 °F 30.6 in WSW 3 mph 6 mph 98 % 0 in
13:17 40.5 °F 39.9 °F 30.6 in WSW 3 mph 6 mph 98 % 0 in
13:22 40.6 °F 40.1 °F 30.6 in West 2 mph 6 mph 98 % 0 in
13:27 40.8 °F 40.3 °F 30.6 in WSW 3 mph 6 mph 98 % 0 in
13:32 40.8 °F 40.3 °F 30.6 in SW 2 mph 6 mph 98 % 0 in
13:37 41.2 °F 40.6 °F 30.6 in SW 3 mph 6 mph 98 % 0 in
13:42 41.2 °F 40.6 °F 30.6 in Calm   6 mph 98 % 0 in
13:47 41.4 °F 40.8 °F 30.6 in West 1 mph 4 mph 98 % 0 in
13:52 41.4 °F 40.8 °F 30.6 in Calm   3 mph 98 % 0 in
13:57 41.5 °F 41 °F 30.6 in WSW 3 mph 4 mph 98 % 0 in
14:02 41.5 °F 41 °F 30.6 in West 3 mph 5 mph 98 % 0 in
14:12 41.7 °F 41.2 °F 30.6 in West 1 mph 5 mph 98 % 0 in
14:17 41.9 °F 41.4 °F 30.6 in Calm   4 mph 98 % 0 in
14:22 42.1 °F 41.5 °F 30.6 in Calm   3 mph 98 % 0 in
14:27 42.1 °F 41.5 °F 30.6 in Calm   3 mph 98 % 0 in
14:32 42.3 °F 41.7 °F 30.6 in Calm   2 mph 98 % 0 in
14:42 42.3 °F 41.7 °F 30.6 in Calm   2 mph 98 % 0 in
14:47 42.3 °F 41.7 °F 30.6 in SSW 2 mph 3 mph 98 % 0 in
14:52 42.1 °F 41.5 °F 30.6 in Calm   3 mph 98 % 0 in
14:57 42.3 °F 41.7 °F 30.6 in SW 4 mph 4 mph 98 % 0 in
15:02 42.3 °F 41.7 °F 30.6 in SW 2 mph 4 mph 98 % 0 in
15:07 42.1 °F 41.5 °F 30.6 in SW 4 mph 4 mph 98 % 0 in
15:12 42.1 °F 41.5 °F 30.6 in SSW 3 mph 5 mph 98 % 0 in
15:17 42.1 °F 41.5 °F 30.6 in SW 1 mph 5 mph 98 % 0 in
15:22 42.1 °F 41.5 °F 30.6 in SW 3 mph 5 mph 98 % 0 in
15:27 42.1 °F 41.5 °F 30.6 in WSW 3 mph 5 mph 98 % 0 in
15:32 42.1 °F 41.5 °F 30.6 in West 3 mph 5 mph 98 % 0 in
15:37 41.9 °F 41.4 °F 30.6 in West 3 mph 5 mph 98 % 0 in
15:42 41.9 °F 41.4 °F 30.6 in WSW 3 mph 5 mph 98 % 0 in
15:47 41.9 °F 41.4 °F 30.6 in West 2 mph 5 mph 98 % 0 in
15:52 41.9 °F 41.4 °F 30.6 in West 3 mph 5 mph 98 % 0 in
16:02 41.9 °F 41.4 °F 30.6 in West 2 mph 5 mph 98 % 0 in
16:12 41.7 °F 41.2 °F 30.6 in WSW 2 mph 5 mph 98 % 0 in
16:17 41.7 °F 41.2 °F 30.6 in Calm   5 mph 98 % 0 in
16:22 41.7 °F 41.2 °F 30.6 in SSW 1 mph 4 mph 98 % 0 in
16:27 41.9 °F 41.4 °F 30.6 in WSW 1 mph 4 mph 98 % 0 in
16:32 41.9 °F 41.4 °F 30.6 in Calm   4 mph 98 % 0 in
16:42 41.9 °F 41.4 °F 30.6 in Calm   3 mph 98 % 0 in
16:47 41.9 °F 41.4 °F 30.6 in Calm   1 mph 98 % 0 in
16:52 41.9 °F 41.4 °F 30.6 in Calm   1 mph 98 % 0 in
17:02 42.1 °F 41.5 °F 30.6 in WNW 2 mph 2 mph 98 % 0 in
17:07 42.1 °F 41.5 °F 30.6 in WNW 2 mph 3 mph 98 % 0 in
17:12 42.1 °F 41.5 °F 30.6 in WNW 1 mph 3 mph 98 % 0 in
17:17 42.1 °F 41.5 °F 30.6 in Calm   3 mph 98 % 0 in
17:22 42.1 °F 41.5 °F 30.6 in Calm   2 mph 98 % 0 in
17:32 42.1 °F 41.5 °F 30.6 in West 1 mph 3 mph 98 % 0 in
17:37 42.1 °F 41.5 °F 30.6 in Calm   3 mph 98 % 0 in
17:47 42.1 °F 41.5 °F 30.6 in Calm   2 mph 98 % 0 in
17:52 42.1 °F 41.5 °F 30.6 in Calm   1 mph 98 % 0 in
17:57 42.1 °F 41.5 °F 30.6 in Calm   2 mph 98 % 0 in
18:02 42.1 °F 41.5 °F 30.6 in Calm   2 mph 98 % 0 in
18:07 42.1 °F 41.5 °F 30.6 in Calm   2 mph 98 % 0 in
18:12 42.1 °F 41.5 °F 30.6 in Calm   1 mph 98 % 0 in
18:17 42.1 °F 41.5 °F 30.6 in Calm   1 mph 98 % 0 in
18:22 42.1 °F 41.5 °F 30.6 in Calm   1 mph 98 % 0 in
18:32 42.1 °F 41.5 °F 30.6 in Calm   2 mph 98 % 0 in
18:42 41.7 °F 41.2 °F 30.6 in Calm   2 mph 98 % 0 in
18:47 41.7 °F 41.2 °F 30.6 in West 1 mph 2 mph 98 % 0 in
18:57 41.5 °F 41 °F 30.6 in Calm   3 mph 98 % 0 in
19:02 41.4 °F 40.8 °F 30.6 in Calm   2 mph 98 % 0 in
19:07 41.4 °F 40.8 °F 30.6 in Calm   1 mph 98 % 0 in
19:12 41.2 °F 40.6 °F 30.6 in Calm   1 mph 98 % 0 in
19:17 41.4 °F 40.8 °F 30.6 in Calm     98 % 0 in
19:27 41.4 °F 40.8 °F 30.6 in Calm     98 % 0 in
19:32 41.2 °F 40.6 °F 30.6 in Calm     98 % 0 in
19:37 41.2 °F 40.6 °F 30.6 in Calm     98 % 0 in
19:42 41.2 °F 40.6 °F 30.6 in Calm     98 % 0 in
19:47 41.2 °F 40.6 °F 30.6 in Calm   1 mph 98 % 0 in
19:52 41.2 °F 40.6 °F 30.6 in Calm   1 mph 98 % 0 in
20:02 41.2 °F 40.6 °F 30.6 in Calm   1 mph 98 % 0 in
20:07 41.2 °F 40.6 °F 30.6 in Calm   2 mph 98 % 0 in
20:12 41.2 °F 40.6 °F 30.6 in Calm   2 mph 98 % 0 in
20:17 41.2 °F 40.6 °F 30.6 in Calm   2 mph 98 % 0 in
20:22 41.2 °F 40.6 °F 30.6 in Calm   1 mph 98 % 0 in
20:27 41.2 °F 40.6 °F 30.6 in Calm   2 mph 98 % 0 in
20:32 41.2 °F 40.6 °F 30.6 in Calm   2 mph 98 % 0 in
20:37 41.2 °F 40.6 °F 30.6 in Calm   2 mph 98 % 0 in
20:42 41.2 °F 40.6 °F 30.6 in Calm   2 mph 98 % 0 in
20:47 41.2 °F 40.6 °F 30.6 in Calm   1 mph 98 % 0 in
20:52 41.2 °F 40.6 °F 30.6 in Calm   1 mph 98 % 0 in
21:02 41 °F 40.5 °F 30.6 in Calm     98 % 0 in
21:12 40.5 °F 39.9 °F 30.6 in Calm     98 % 0 in
21:17 40.1 °F 39.6 °F 30.6 in Calm     98 % 0 in
21:22 39.7 °F 39.2 °F 30.6 in Calm     98 % 0 in
21:27 39.6 °F 38.8 °F 30.6 in Calm     97 % 0 in
21:32 39.6 °F 39 °F 30.6 in Calm     98 % 0 in
21:42 39.4 °F 38.8 °F 30.6 in Calm     98 % 0 in
21:47 39 °F 38.5 °F 30.6 in Calm     98 % 0 in
21:52 38.8 °F 38.3 °F 30.6 in Calm     98 % 0 in
21:57 38.7 °F 37.9 °F 30.6 in Calm     97 % 0 in
22:02 38.5 °F 37.9 °F 30.6 in Calm     98 % 0 in
22:07 38.5 °F 37.9 °F 30.6 in Calm     98 % 0 in
22:12 38.3 °F 37.8 °F 30.6 in Calm     98 % 0 in
22:17 38.1 °F 37.6 °F 30.6 in Calm     98 % 0 in
22:22 38.1 °F 37.6 °F 30.6 in Calm     98 % 0 in
22:27 38.1 °F 37.6 °F 30.6 in Calm     98 % 0 in
22:32 37.9 °F 37.4 °F 30.6 in Calm     98 % 0 in
22:42 37.9 °F 37.4 °F 30.6 in Calm   1 mph 98 % 0 in
22:47 37.9 °F 37.4 °F 30.6 in Calm   1 mph 98 % 0 in
22:52 38.1 °F 37.6 °F 30.6 in Calm   1 mph 98 % 0 in
23:02 38.5 °F 37.9 °F 30.6 in Calm   1 mph 98 % 0 in
23:07 38.3 °F 37.8 °F 30.7 in Calm   1 mph 98 % 0 in
23:12 38.3 °F 37.8 °F 30.7 in Calm   1 mph 98 % 0 in
23:17 38.3 °F 37.8 °F 30.7 in Calm   1 mph 98 % 0 in
23:22 38.3 °F 37.8 °F 30.7 in WNW 1 mph 1 mph 98 % 0 in
23:27 38.5 °F 37.9 °F 30.7 in Calm   1 mph 98 % 0 in
23:32 38.5 °F 37.9 °F 30.7 in Calm   1 mph 98 % 0 in
23:37 38.5 °F 37.9 °F 30.7 in Calm   1 mph 98 % 0 in
23:42 38.7 °F 38.1 °F 30.7 in WNW 1 mph 1 mph 98 % 0 in
23:47 38.7 °F 38.1 °F 30.7 in Calm   1 mph 98 % 0 in
23:52 38.5 °F 37.9 °F 30.7 in Calm   1 mph 98 % 0 in
23:57 38.7 °F 38.1 °F 30.7 in SW 1 mph 1 mph 98 % 0 in
Meteo18
Compliments of Weather Underground - 4 mb

Script developed by  Jim McMurry - jmcmurry@mwt.net Adapted for the template by  Wim van der Kuil - Leuven-Template.eu

You find our weather info also at:

European Weather Network

Weather Underground

Equipment we use:

Weather-station
Davis Vue

Weather-program
Meteohub

Weather-server
Raspberry PI 2 B+

Provider
1 and 1

Davis Vue

Meteohub

Raspberry PI 2 B+

1 and 1